Country
Station

 

Weather  for  Rovaniemi  -  Finland    Finland

  
-19 °C (-2 °F)
    
 
 

Current METAR for Rovaniemi is :

EFRO 211750Z AUTO 06007KT 8000 BKN200 M19/M21 Q1014

 

This is a report for Rovaniemi - Finland.
 
The report was made 14 minutes ago, at 17:50 UTC .
The wind was blowing at a speed of 3.6 meters per second (8.1 miles per hour) from east/northeast (060°).
 
The temperature was -19 °C (-2 °F), with a dew-point at -21 °C (-6 °F).
The temperature felt like -26 °C (-17 °F).
 
The atmospheric pressure was 1014 hPa (29.94 inHg).
The relative humidity was 84.1%.
 
There were broken clouds at a height of 6096 meters (20000 feet).
 
The overall visibility was 8.0 kilometers (5.0 miles).
 

 
 
 
 

Country :   A   B   C   D   E   F   G   H   I   J   K   L   M   N   O   P   Q   R   S   T   U   V   W   Y   Z

 

Site Info  |  Disclaimer  |  Credits  |  Privacy
Contact us  |  Add to favorites
© 2013-2018 METARs - All rights reserved